createdAt,value
2023-05-02T00:02:18.500Z,30.53
2023-05-02T00:04:45.637Z,31.17
2023-05-02T00:07:12.890Z,30.43
2023-05-02T00:09:40.075Z,30.53
2023-05-02T00:12:07.192Z,28.97
2023-05-02T00:14:34.240Z,28.13
2023-05-02T00:17:01.412Z,28.00
2023-05-02T00:19:28.500Z,28.57
2023-05-02T00:21:55.609Z,28.47
2023-05-02T00:24:22.633Z,27.20
2023-05-02T00:26:49.734Z,29.77
2023-05-02T00:29:17.232Z,28.50
2023-05-02T00:31:44.415Z,29.13
2023-05-02T00:34:11.535Z,31.13
2023-05-02T00:36:38.708Z,29.80
2023-05-02T00:39:05.729Z,28.27
2023-05-02T00:41:35.988Z,29.30
2023-05-02T00:44:03.219Z,26.93
2023-05-02T00:46:30.491Z,28.57
2023-05-02T00:48:57.666Z,27.23
2023-05-02T00:51:24.804Z,28.60
2023-05-02T00:53:52.373Z,28.80
2023-05-02T00:56:19.488Z,28.43
2023-05-02T00:58:47.251Z,29.33
2023-05-02T01:01:24.913Z,28.37
2023-05-02T01:04:02.296Z,29.57
2023-05-02T01:06:41.630Z,28.00
2023-05-02T01:09:27.752Z,28.87
2023-05-02T01:12:05.475Z,30.27
2023-05-02T01:14:35.985Z,29.73
2023-05-02T01:17:05.664Z,28.50
2023-05-02T01:19:34.726Z,29.80
2023-05-02T01:22:04.190Z,29.03
2023-05-02T01:24:33.381Z,30.17
2023-05-02T01:27:19.479Z,29.57
2023-05-02T01:29:48.094Z,30.03
2023-05-02T01:32:15.861Z,32.00
2023-05-02T01:34:43.901Z,31.63
2023-05-02T01:37:13.219Z,32.27
2023-05-02T01:39:40.775Z,31.40
2023-05-02T01:42:07.937Z,30.90
2023-05-02T01:44:36.517Z,30.60
2023-05-02T01:47:05.466Z,32.27
2023-05-02T01:49:34.111Z,31.97
2023-05-02T01:52:04.800Z,31.23
2023-05-02T01:54:34.216Z,32.43
2023-05-02T01:57:03.751Z,31.07
2023-05-02T01:59:31.178Z,30.77
2023-05-02T02:01:59.605Z,30.53
2023-05-02T02:04:27.086Z,30.47
2023-05-02T02:07:01.766Z,30.67
2023-05-02T02:09:28.942Z,29.37
2023-05-02T02:12:14.721Z,29.53
2023-05-02T02:14:44.706Z,30.30
2023-05-02T02:17:32.046Z,29.17
2023-05-02T02:20:01.572Z,29.50
2023-05-02T02:22:29.701Z,29.47
2023-05-02T02:24:58.046Z,29.33
2023-05-02T02:27:25.160Z,29.50
2023-05-02T02:29:52.257Z,29.53
2023-05-02T02:32:19.324Z,28.27
2023-05-02T02:34:46.385Z,28.37
2023-05-02T02:37:18.789Z,27.93
2023-05-02T02:40:04.950Z,27.83
2023-05-02T02:42:31.987Z,26.83
2023-05-02T02:45:15.068Z,26.97
2023-05-02T02:47:43.946Z,26.73
2023-05-02T02:50:23.348Z,26.83
2023-05-02T02:52:56.217Z,26.23
2023-05-02T02:55:47.765Z,26.17
2023-05-02T02:58:19.714Z,26.00
2023-05-02T03:00:47.378Z,24.57
2023-05-02T03:03:19.022Z,24.67
2023-05-02T03:05:46.799Z,25.27
2023-05-02T03:08:13.857Z,24.47
2023-05-02T03:10:41.040Z,24.27
2023-05-02T03:13:08.092Z,25.00
2023-05-02T03:15:35.184Z,24.67
2023-05-02T03:18:02.305Z,23.97
2023-05-02T03:20:29.715Z,24.13
2023-05-02T03:22:56.872Z,23.57
2023-05-02T03:25:23.997Z,23.63
2023-05-02T03:27:51.138Z,24.10
2023-05-02T03:30:18.378Z,22.93
2023-05-02T03:32:45.605Z,23.07
2023-05-02T03:35:12.719Z,22.27
2023-05-02T03:37:39.993Z,22.37
2023-05-02T03:40:07.518Z,22.70
2023-05-02T03:42:41.398Z,21.47
2023-05-02T03:45:09.126Z,23.67
2023-05-02T03:47:36.280Z,21.10
2023-05-02T03:50:03.702Z,21.50
2023-05-02T03:52:31.161Z,20.23
2023-05-02T03:54:58.320Z,19.90
2023-05-02T03:57:33.135Z,20.73
2023-05-02T04:00:00.647Z,20.90
2023-05-02T04:02:28.101Z,19.87
2023-05-02T04:04:55.239Z,20.33
2023-05-02T04:07:22.420Z,20.67
2023-05-02T04:09:49.480Z,19.47
2023-05-02T04:12:16.603Z,21.57
2023-05-02T04:14:43.687Z,19.73
2023-05-02T04:17:11.038Z,18.27
2023-05-02T04:19:38.210Z,16.90
2023-05-02T04:22:05.376Z,13.87
2023-05-02T04:24:32.432Z,13.27
2023-05-02T04:26:59.738Z,13.03
2023-05-02T04:29:26.752Z,12.10
2023-05-02T04:31:54.270Z,11.30
2023-05-02T04:34:21.540Z,11.10
2023-05-02T04:36:49.059Z,11.03
2023-05-02T04:39:16.371Z,9.77
2023-05-02T04:41:43.604Z,9.40
2023-05-02T04:44:11.048Z,7.57
2023-05-02T04:46:38.319Z,7.00
2023-05-02T04:49:05.592Z,5.93
2023-05-02T04:51:32.899Z,5.03
2023-05-02T04:54:00.588Z,4.73
2023-05-02T04:56:27.799Z,4.83
2023-05-02T04:58:55.114Z,4.20
2023-05-02T05:01:24.312Z,4.40
2023-05-02T05:03:51.821Z,4.23
2023-05-02T05:06:19.535Z,3.90
2023-05-02T05:08:49.456Z,4.30
2023-05-02T05:11:19.949Z,4.67
2023-05-02T05:13:47.081Z,4.63
2023-05-02T05:16:14.246Z,5.00
2023-05-02T05:18:41.496Z,4.60
2023-05-02T05:21:09.363Z,4.33
2023-05-02T05:23:36.987Z,3.93
2023-05-02T05:26:15.254Z,4.27
2023-05-02T05:28:42.785Z,4.00
2023-05-02T05:31:11.024Z,4.27
2023-05-02T05:33:38.590Z,4.33
2023-05-02T05:36:09.617Z,4.40
2023-05-02T05:38:37.093Z,4.50
2023-05-02T05:41:05.423Z,4.60
2023-05-02T05:43:32.651Z,4.47
2023-05-02T05:45:59.820Z,4.20
2023-05-02T05:48:28.304Z,4.27
2023-05-02T05:50:55.458Z,4.00
2023-05-02T05:53:22.617Z,4.73
2023-05-02T05:55:49.855Z,4.20
2023-05-02T05:58:17.087Z,5.20
2023-05-02T06:00:44.244Z,4.30
2023-05-02T06:03:11.628Z,4.37
2023-05-02T06:05:38.855Z,4.00
2023-05-02T06:08:06.171Z,2.97
2023-05-02T06:10:33.348Z,2.50
2023-05-02T06:13:00.666Z,2.27
2023-05-02T06:15:27.907Z,2.20
2023-05-02T06:17:55.187Z,1.70
2023-05-02T06:20:22.489Z,1.90
2023-05-02T06:22:49.618Z,2.40
2023-05-02T06:25:16.917Z,2.13
2023-05-02T06:27:44.232Z,2.60
2023-05-02T06:30:11.562Z,2.50
2023-05-02T06:32:38.786Z,3.17
2023-05-02T06:35:06.292Z,2.57
2023-05-02T06:37:35.105Z,3.27
2023-05-02T06:40:03.306Z,4.20
2023-05-02T06:42:31.531Z,3.50
2023-05-02T06:44:58.800Z,3.63
2023-05-02T06:47:26.379Z,3.47
2023-05-02T06:49:53.933Z,3.30
2023-05-02T06:52:21.134Z,3.43
2023-05-02T06:54:48.427Z,3.57
2023-05-02T06:57:15.866Z,3.63
2023-05-02T06:59:43.167Z,3.60
2023-05-02T07:02:10.274Z,3.70
2023-05-02T07:04:37.517Z,4.30
2023-05-02T07:07:06.759Z,4.30
2023-05-02T07:09:33.922Z,4.07
2023-05-02T07:12:03.102Z,3.63
2023-05-02T07:14:31.776Z,4.40
2023-05-02T07:16:59.283Z,4.27
2023-05-02T07:19:26.465Z,4.33
2023-05-02T07:21:53.616Z,4.70
2023-05-02T07:24:20.924Z,5.17
2023-05-02T07:26:48.076Z,6.37
2023-05-02T07:29:15.142Z,5.77
2023-05-02T07:31:42.714Z,6.10
2023-05-02T07:34:09.990Z,4.90
2023-05-02T07:36:37.392Z,5.13
2023-05-02T07:39:04.501Z,5.07
2023-05-02T07:41:31.568Z,4.50
2023-05-02T07:43:58.892Z,4.07
2023-05-02T07:46:26.014Z,3.77
2023-05-02T07:48:54.054Z,4.37
2023-05-02T07:51:21.604Z,3.80
2023-05-02T07:53:54.364Z,4.00
2023-05-02T07:56:22.019Z,3.73
2023-05-02T07:58:50.094Z,4.53
2023-05-02T08:01:17.166Z,3.43
2023-05-02T08:03:44.761Z,3.63
2023-05-02T08:06:13.162Z,3.37
2023-05-02T08:08:40.291Z,3.80
2023-05-02T08:11:07.441Z,4.03
2023-05-02T08:13:34.753Z,3.90
2023-05-02T08:16:02.759Z,8.43
2023-05-02T08:18:30.325Z,6.13
2023-05-02T08:21:00.511Z,3.80
2023-05-02T08:23:27.643Z,3.50
2023-05-02T08:25:55.003Z,4.10
2023-05-02T08:28:22.042Z,3.97
2023-05-02T08:30:49.315Z,3.57
2023-05-02T08:33:16.993Z,3.50
2023-05-02T08:35:44.122Z,3.33
2023-05-02T08:38:11.490Z,3.07
2023-05-02T08:40:42.759Z,3.17
2023-05-02T08:43:11.797Z,3.20
2023-05-02T08:45:43.376Z,2.90
2023-05-02T08:48:12.150Z,3.20
2023-05-02T08:50:45.341Z,3.20
2023-05-02T08:53:14.373Z,2.63
2023-05-02T08:55:42.324Z,3.37
2023-05-02T08:58:10.733Z,2.70
2023-05-02T09:00:41.782Z,3.27
2023-05-02T09:03:16.616Z,3.07
2023-05-02T09:05:44.459Z,2.93
2023-05-02T09:08:11.674Z,4.00
2023-05-02T09:10:40.966Z,3.17
2023-05-02T09:13:26.822Z,5.40
2023-05-02T09:16:01.005Z,4.30
2023-05-02T09:18:30.304Z,2.80
2023-05-02T09:20:59.064Z,2.97
2023-05-02T09:23:44.751Z,2.60
2023-05-02T09:26:14.792Z,3.20
2023-05-02T09:28:46.414Z,2.30
2023-05-02T09:31:16.859Z,2.70
2023-05-02T09:33:49.561Z,2.73
2023-05-02T09:36:18.016Z,2.70
2023-05-02T09:38:49.882Z,2.43
2023-05-02T09:41:23.012Z,2.20
2023-05-02T09:44:16.666Z,2.20
2023-05-02T09:46:46.868Z,2.33
2023-05-02T09:49:23.781Z,3.77
2023-05-02T09:51:52.348Z,2.30
2023-05-02T09:54:40.378Z,2.10
2023-05-02T09:57:10.217Z,2.20
2023-05-02T09:59:37.905Z,2.13
2023-05-02T10:02:07.233Z,2.17
2023-05-02T10:04:34.802Z,1.90
2023-05-02T10:07:03.178Z,2.23
2023-05-02T10:09:32.644Z,2.07
2023-05-02T10:12:04.901Z,2.87
2023-05-02T10:14:32.514Z,3.00
2023-05-02T10:17:05.747Z,2.17
2023-05-02T10:20:03.546Z,2.10
2023-05-02T10:22:32.160Z,2.33
2023-05-02T10:25:03.808Z,1.70
2023-05-02T10:27:35.365Z,2.00
2023-05-02T10:30:05.245Z,2.03
2023-05-02T10:32:38.666Z,2.20
2023-05-02T10:35:07.879Z,2.20
2023-05-02T10:37:37.014Z,2.93
2023-05-02T10:40:06.923Z,4.50
2023-05-02T10:42:39.196Z,2.87
2023-05-02T10:45:07.740Z,3.60
2023-05-02T10:47:35.063Z,3.40
2023-05-02T10:50:03.426Z,3.23
2023-05-02T10:52:35.237Z,3.07
2023-05-02T10:55:23.252Z,5.10
2023-05-02T10:57:59.376Z,3.43
2023-05-02T11:00:30.850Z,4.50
2023-05-02T11:02:58.261Z,3.03
2023-05-02T11:05:26.004Z,3.27
2023-05-02T11:08:11.894Z,3.70
2023-05-02T11:10:39.045Z,3.33
2023-05-02T11:13:06.204Z,3.27
2023-05-02T11:15:42.420Z,3.33
2023-05-02T11:18:15.708Z,3.40
2023-05-02T11:20:45.445Z,4.10
2023-05-02T11:23:16.538Z,2.97
2023-05-02T11:25:45.073Z,3.83
2023-05-02T11:28:31.154Z,3.27
2023-05-02T11:30:59.487Z,3.23
2023-05-02T11:33:28.956Z,3.53
2023-05-02T11:35:59.412Z,3.27
2023-05-02T11:38:27.468Z,3.57
2023-05-02T11:40:55.968Z,4.17
2023-05-02T11:43:25.229Z,3.63
2023-05-02T11:45:52.725Z,4.50
2023-05-02T11:48:23.062Z,3.60
2023-05-02T11:50:54.688Z,4.97
2023-05-02T11:53:23.355Z,3.73
2023-05-02T11:55:51.656Z,3.90
2023-05-02T11:58:39.127Z,3.93
2023-05-02T12:01:16.534Z,3.80
2023-05-02T12:03:44.127Z,4.67
2023-05-02T12:06:13.071Z,4.50
2023-05-02T12:08:41.022Z,4.47
2023-05-02T12:11:09.242Z,3.87
2023-05-02T12:13:36.527Z,4.10
2023-05-02T12:16:04.741Z,4.70
2023-05-02T12:18:33.308Z,4.33
2023-05-02T12:21:00.662Z,4.10
2023-05-02T12:23:27.941Z,4.30
2023-05-02T12:25:56.374Z,3.90
2023-05-02T12:28:24.156Z,3.33
2023-05-02T12:30:51.901Z,4.20
2023-05-02T12:33:19.523Z,4.20
2023-05-02T12:35:47.492Z,4.00
2023-05-02T12:38:20.335Z,3.63
2023-05-02T12:40:48.904Z,4.07
2023-05-02T12:43:16.377Z,4.43
2023-05-02T12:45:43.860Z,4.33
2023-05-02T12:48:24.586Z,4.47
2023-05-02T12:50:51.984Z,3.80
2023-05-02T12:53:19.123Z,3.90
2023-05-02T12:55:46.878Z,4.07
2023-05-02T12:58:14.110Z,3.90
2023-05-02T13:00:42.849Z,3.63
2023-05-02T13:03:11.102Z,4.30
2023-05-02T13:05:38.597Z,4.50
2023-05-02T13:08:06.169Z,4.40
2023-05-02T13:10:33.281Z,4.40
2023-05-02T13:13:01.570Z,4.63
2023-05-02T13:15:28.986Z,4.07
2023-05-02T13:17:56.219Z,4.20
2023-05-02T13:20:23.493Z,3.93
2023-05-02T13:22:50.566Z,4.50
2023-05-02T13:25:17.714Z,4.37
2023-05-02T13:27:46.028Z,4.30
2023-05-02T13:30:13.642Z,4.77
2023-05-02T13:32:41.325Z,4.27
2023-05-02T13:35:09.081Z,4.00
2023-05-02T13:37:36.494Z,4.47
2023-05-02T13:40:04.952Z,5.40
2023-05-02T13:42:32.560Z,4.37
2023-05-02T13:44:59.894Z,4.60
2023-05-02T13:47:27.057Z,4.27
2023-05-02T13:49:54.310Z,4.27
2023-05-02T13:52:21.956Z,3.93
2023-05-02T13:54:50.274Z,4.30
2023-05-02T13:57:17.427Z,3.90
2023-05-02T13:59:44.572Z,4.13
2023-05-02T14:02:11.804Z,4.30
2023-05-02T14:04:38.896Z,4.47
2023-05-02T14:07:06.345Z,4.10
2023-05-02T14:09:33.424Z,4.47
2023-05-02T14:12:01.935Z,4.17
2023-05-02T14:14:29.079Z,3.53
2023-05-02T14:16:56.240Z,4.10
2023-05-02T14:19:23.292Z,3.93
2023-05-02T14:21:50.446Z,3.90
2023-05-02T14:24:18.308Z,4.30
2023-05-02T14:26:46.503Z,4.00
2023-05-02T14:29:13.823Z,3.97
2023-05-02T14:31:40.952Z,3.67
2023-05-02T14:34:09.105Z,3.53
2023-05-02T14:36:36.432Z,3.40
2023-05-02T14:39:03.605Z,4.10
2023-05-02T14:41:30.827Z,3.63
2023-05-02T14:43:57.976Z,3.20
2023-05-02T14:46:25.170Z,3.23
2023-05-02T14:48:52.358Z,4.27
2023-05-02T14:51:19.503Z,3.17
2023-05-02T14:53:48.941Z,3.33
2023-05-02T14:56:17.206Z,3.77
2023-05-02T14:58:44.348Z,3.40
2023-05-02T15:01:21.540Z,20.93
2023-05-02T15:04:05.230Z,4.20
2023-05-02T15:06:35.626Z,4.23
2023-05-02T15:09:03.168Z,3.90
2023-05-02T15:11:30.303Z,5.50
2023-05-02T15:13:59.457Z,3.00
2023-05-02T15:16:27.575Z,2.97
2023-05-02T15:18:54.907Z,3.00
2023-05-02T15:21:22.382Z,3.33
2023-05-02T15:23:49.540Z,3.27
2023-05-02T15:26:34.819Z,3.43
2023-05-02T15:29:01.945Z,3.43
2023-05-02T15:31:29.400Z,3.20
2023-05-02T15:33:56.651Z,3.00
2023-05-02T15:36:28.963Z,2.83
2023-05-02T15:38:58.477Z,2.77
2023-05-02T15:41:27.512Z,3.30
2023-05-02T15:43:54.795Z,2.97
2023-05-02T15:46:22.178Z,3.03
2023-05-02T15:48:49.363Z,2.40
2023-05-02T15:51:16.630Z,2.80
2023-05-02T15:53:44.874Z,2.70
2023-05-02T15:56:12.674Z,2.80
2023-05-02T15:58:40.284Z,2.60
2023-05-02T16:01:07.977Z,2.83
2023-05-02T16:03:35.409Z,3.43
2023-05-02T16:06:05.343Z,2.53
2023-05-02T16:08:32.597Z,2.90
2023-05-02T16:11:04.255Z,2.30
2023-05-02T16:13:31.945Z,2.90
2023-05-02T16:15:59.376Z,2.60
2023-05-02T16:18:29.450Z,3.00
2023-05-02T16:20:57.240Z,2.93
2023-05-02T16:23:25.690Z,2.47
2023-05-02T16:26:01.040Z,2.97
2023-05-02T16:28:28.508Z,2.50
2023-05-02T16:30:56.243Z,2.20
2023-05-02T16:33:23.570Z,2.47
2023-05-02T16:35:50.830Z,2.20
2023-05-02T16:38:18.053Z,2.37
2023-05-02T16:40:45.263Z,2.50
2023-05-02T16:43:12.516Z,2.20
2023-05-02T16:45:39.779Z,2.33
2023-05-02T16:48:07.955Z,2.33
2023-05-02T16:50:35.310Z,2.27
2023-05-02T16:53:02.511Z,2.63
2023-05-02T16:55:30.642Z,2.73
2023-05-02T17:00:29.779Z,2.20
2023-05-02T17:02:57.157Z,2.60
2023-05-02T17:05:24.441Z,2.30
2023-05-02T17:07:52.068Z,2.20
2023-05-02T17:10:19.603Z,2.50
2023-05-02T17:12:46.923Z,1.90
2023-05-02T17:15:14.210Z,2.23
2023-05-02T17:17:41.359Z,2.20
2023-05-02T17:20:10.050Z,2.03
2023-05-02T17:22:38.189Z,2.20
2023-05-02T17:25:06.482Z,2.13
2023-05-02T17:27:33.786Z,2.10
2023-05-02T17:30:01.173Z,1.93
2023-05-02T17:32:28.636Z,2.20
2023-05-02T17:34:57.637Z,3.30
2023-05-02T17:37:26.228Z,2.13
2023-05-02T17:39:53.510Z,1.90
2023-05-02T17:42:20.822Z,2.17
2023-05-02T17:44:48.491Z,2.30
2023-05-02T17:47:18.131Z,1.97
2023-05-02T17:49:47.503Z,2.23
2023-05-02T17:52:14.804Z,2.43
2023-05-02T17:54:42.428Z,2.63
2023-05-02T17:57:10.270Z,2.27
2023-05-02T17:59:40.537Z,1.83
2023-05-02T18:02:10.253Z,2.10
2023-05-02T18:04:45.406Z,2.40
2023-05-02T18:07:13.373Z,2.37
2023-05-02T18:09:40.726Z,1.77
2023-05-02T18:12:07.921Z,2.07
2023-05-02T18:14:35.221Z,2.10
2023-05-02T18:17:04.168Z,2.40
2023-05-02T18:19:31.532Z,2.30
2023-05-02T18:21:58.795Z,2.70
2023-05-02T18:24:26.199Z,2.50
2023-05-02T18:26:53.290Z,2.70
2023-05-02T18:29:20.589Z,2.63
2023-05-02T18:31:52.356Z,2.07
2023-05-02T18:34:20.074Z,1.97
2023-05-02T18:36:47.532Z,2.10
2023-05-02T18:39:14.870Z,2.10
2023-05-02T18:41:42.136Z,1.93
2023-05-02T18:44:10.451Z,2.57
2023-05-02T18:46:39.413Z,2.80
2023-05-02T18:49:09.094Z,2.97
2023-05-02T18:51:36.428Z,2.30
2023-05-02T18:54:03.937Z,2.70
2023-05-02T18:56:31.244Z,2.10
2023-05-02T18:58:58.834Z,2.70
2023-05-02T19:01:26.432Z,2.20
2023-05-02T19:03:54.436Z,2.17
2023-05-02T19:06:21.798Z,2.03
2023-05-02T19:08:49.970Z,1.80
2023-05-02T19:11:17.695Z,2.30
2023-05-02T19:13:50.140Z,2.30
2023-05-02T19:16:17.597Z,2.13
2023-05-02T19:21:28.643Z,7.53
2023-05-02T19:23:56.709Z,4.47
2023-05-02T19:26:24.412Z,4.40
2023-05-02T19:28:52.020Z,3.60
2023-05-02T19:31:20.411Z,3.10
2023-05-02T19:33:55.057Z,1.93
2023-05-02T19:36:27.463Z,2.13
2023-05-02T19:38:58.293Z,2.30
2023-05-02T19:41:26.251Z,2.03
2023-05-02T19:43:55.565Z,2.60
2023-05-02T19:46:23.231Z,2.17
2023-05-02T19:48:50.489Z,2.10
2023-05-02T19:51:25.206Z,1.90
2023-05-02T19:53:54.092Z,2.50
2023-05-02T19:56:21.706Z,2.30
2023-05-02T19:58:48.948Z,2.27
2023-05-02T20:01:16.196Z,2.77
2023-05-02T20:03:44.223Z,2.27
2023-05-02T20:06:11.591Z,1.83
2023-05-02T20:08:38.963Z,2.40
2023-05-02T20:11:06.400Z,2.30
2023-05-02T20:13:33.844Z,2.13
2023-05-02T20:16:01.054Z,2.23
2023-05-02T20:18:28.415Z,2.30
2023-05-02T20:20:56.579Z,2.10
2023-05-02T20:23:24.000Z,2.20
2023-05-02T20:25:51.470Z,2.00
2023-05-02T20:28:18.778Z,2.13
2023-05-02T20:30:46.118Z,2.00
2023-05-02T20:33:16.605Z,2.30
2023-05-02T20:35:45.520Z,1.93
2023-05-02T20:38:13.000Z,2.47
2023-05-02T20:40:41.418Z,2.53
2023-05-02T20:43:09.047Z,2.20
2023-05-02T20:45:36.247Z,2.37
2023-05-02T20:48:03.612Z,2.37
2023-05-02T20:50:31.095Z,2.70
2023-05-02T20:52:58.421Z,2.13
2023-05-02T20:55:25.794Z,2.40
2023-05-02T20:57:53.320Z,2.20
2023-05-02T21:00:24.237Z,1.80
2023-05-02T21:02:51.679Z,2.03
2023-05-02T21:05:18.934Z,1.87
2023-05-02T21:07:46.604Z,1.70
2023-05-02T21:10:13.996Z,2.17
2023-05-02T21:12:41.181Z,2.50
2023-05-02T21:15:08.786Z,3.87
2023-05-02T21:17:36.270Z,4.50
2023-05-02T21:20:03.914Z,3.63
2023-05-02T21:22:31.429Z,2.80
2023-05-02T21:24:59.539Z,3.00
2023-05-02T21:27:26.951Z,2.40
2023-05-02T21:29:54.359Z,2.00
2023-05-02T21:32:22.419Z,2.03
2023-05-02T21:34:50.926Z,2.07
2023-05-02T21:37:18.117Z,2.03
2023-05-02T21:39:45.296Z,1.97
2023-05-02T21:42:13.132Z,2.30
2023-05-02T21:44:40.368Z,2.23
2023-05-02T21:47:07.734Z,2.00
2023-05-02T21:49:35.046Z,2.50
2023-05-02T21:52:03.480Z,2.20
2023-05-02T21:54:31.364Z,2.40
2023-05-02T21:56:58.622Z,2.30
2023-05-02T21:59:27.389Z,2.00
2023-05-02T22:01:54.734Z,2.37
2023-05-02T22:04:23.042Z,2.23
2023-05-02T22:06:53.668Z,2.33
2023-05-02T22:09:22.078Z,2.50
2023-05-02T22:11:49.299Z,2.17
2023-05-02T22:14:16.586Z,2.30
2023-05-02T22:16:43.892Z,2.07
2023-05-02T22:19:12.013Z,2.20
2023-05-02T22:21:39.304Z,2.03
2023-05-02T22:24:06.754Z,2.30
2023-05-02T22:26:34.066Z,2.10
2023-05-02T22:29:01.443Z,2.10
2023-05-02T22:31:28.640Z,2.13
2023-05-02T22:33:55.964Z,2.53
2023-05-02T22:36:23.297Z,2.30
2023-05-02T22:38:50.459Z,2.50
2023-05-02T22:41:17.594Z,2.37
2023-05-02T22:43:44.947Z,2.53
2023-05-02T22:46:12.178Z,2.93
2023-05-02T22:48:39.463Z,2.03
2023-05-02T22:51:06.851Z,2.67
2023-05-02T22:53:35.399Z,3.57
2023-05-02T22:56:02.999Z,2.50
2023-05-02T22:58:30.437Z,2.83
2023-05-02T23:00:57.665Z,1.93
2023-05-02T23:03:24.916Z,2.23
2023-05-02T23:05:52.080Z,2.77
2023-05-02T23:08:19.327Z,2.20
2023-05-02T23:10:46.593Z,2.10
2023-05-02T23:13:13.905Z,2.00
2023-05-02T23:15:41.668Z,2.03
2023-05-02T23:18:08.897Z,2.60
2023-05-02T23:20:36.003Z,2.60
2023-05-02T23:23:04.214Z,2.30
2023-05-02T23:25:31.642Z,2.47
2023-05-02T23:27:58.771Z,2.10
2023-05-02T23:30:25.923Z,2.40
2023-05-02T23:32:53.294Z,2.47
2023-05-02T23:35:21.095Z,2.40
2023-05-02T23:37:49.132Z,2.70
2023-05-02T23:40:16.301Z,2.97
2023-05-02T23:42:43.541Z,2.27
2023-05-02T23:45:10.991Z,2.80
2023-05-02T23:47:38.719Z,2.30
2023-05-02T23:50:06.342Z,2.57
2023-05-02T23:52:33.760Z,2.63
2023-05-02T23:55:01.005Z,2.80
2023-05-02T23:57:30.107Z,2.40
2023-05-02T23:59:57.163Z,3.07
